Time;durP1;ratioP1;P1;durP2;ratioP2;P2;SDS_P1;SDS_P2;PMS_P1;PMS_P2;Temp;Humidity;BMP_temperature;BMP_pressure;BME280_temperature;BME280_humidity;BME280_pressure;Samples;Min_cycle;Max_cycle;Signal;HPM_P1;HPM_P2
2024/04/10 00:02:42;;;;;;;9.35;1.50;;;;;;;10.75;100.00;101278.19;9087233;26;20496;-76
2024/04/10 00:06:43;;;;;;;3.35;1.23;;;;;;;10.63;100.00;101283.06;9086691;26;20017;-76
2024/04/10 00:10:45;;;;;;;4.00;1.27;;;;;;;10.42;100.00;101275.47;9086239;26;20044;-76
2024/04/10 00:14:47;;;;;;;8.27;1.60;;;;;;;10.56;100.00;101268.63;9087515;26;20074;-76
2024/04/10 00:18:52;;;;;;;3.78;1.70;;;;;;;10.35;100.00;101273.59;9087150;26;20017;-76
2024/04/10 00:23:12;;;;;;;3.25;1.23;;;;;;;-141.39;100.00;61527.31;9087283;26;19999;-76
2024/04/10 00:28:12;;;;;;;6.53;1.65;;;;;;;-141.39;100.00;61527.31;9051250;26;20014;-76
2024/04/10 00:32:50;;;;;;;4.80;1.65;;;;;;;-141.39;100.00;61527.31;9080005;26;20490;-76
2024/04/10 00:37:46;;;;;;;3.42;1.55;;;;;;;-141.39;100.00;61527.31;9086547;26;20009;-76
2024/04/10 00:41:47;;;;;;;4.35;1.73;;;;;;;-141.39;100.00;61527.31;9078620;26;20441;-76
2024/04/10 00:46:16;;;;;;;4.15;1.77;;;;;;;-141.39;100.00;61527.31;9052282;26;20002;-76
2024/04/10 00:50:18;;;;;;;7.18;1.75;;;;;;;10.66;100.00;101300.66;9077492;26;20013;-76
2024/04/10 00:54:20;;;;;;;5.18;2.03;;;;;;;-141.39;100.00;61527.31;9054354;26;20520;-76
2024/04/10 00:58:22;;;;;;;3.30;1.60;;;;;;;10.58;100.00;101318.34;9053312;26;19998;-76
2024/04/10 01:03:24;;;;;;;6.97;2.00;;;;;;;-141.39;100.00;61527.31;9046970;26;20002;-76
2024/04/10 01:08:24;;;;;;;3.67;1.60;;;;;;;-141.39;100.00;61527.31;9085903;26;20016;-76
2024/04/10 01:13:25;;;;;;;4.95;1.95;;;;;;;-141.39;100.00;61527.31;9054496;26;20034;-76
2024/04/10 01:18:24;;;;;;;6.03;1.70;;;;;;;-141.39;100.00;61527.31;9084208;26;20021;-76
2024/04/10 01:22:58;;;;;;;3.08;1.38;;;;;;;-141.39;100.00;61527.31;9089527;26;20002;-76
2024/04/10 01:27:58;;;;;;;5.93;1.55;;;;;;;-141.39;100.00;61527.31;9086578;26;20013;-76
2024/04/10 01:32:58;;;;;;;2.67;1.52;;;;;;;-141.39;100.00;61527.31;9085026;26;20013;-76
2024/04/10 01:37:59;;;;;;;9.93;2.17;;;;;;;-141.39;100.00;61527.31;9055276;26;20006;-77
2024/04/10 01:42:59;;;;;;;8.25;1.63;;;;;;;-141.39;100.00;61527.31;9117360;26;19998;-76
2024/04/10 01:47:59;;;;;;;6.35;1.38;;;;;;;-141.39;100.00;61527.31;9090511;26;20484;-77
2024/04/10 01:53:00;;;;;;;8.05;1.67;;;;;;;-141.39;100.00;61527.31;9090865;26;20033;-76
2024/04/10 01:57:45;;;;;;;5.10;1.42;;;;;;;-141.39;100.00;61527.31;9058830;26;20017;-77
2024/04/10 02:02:46;;;;;;;3.53;1.25;;;;;;;-141.39;100.00;61527.31;9058357;26;19998;-77
2024/04/10 02:07:09;;;;;;;5.82;1.92;;;;;;;-141.39;100.00;61527.31;9089904;26;20474;-77
2024/04/10 02:11:23;;;;;;;2.80;1.17;;;;;;;-141.39;100.00;61527.31;9090126;26;19999;-77
2024/04/10 02:15:44;;;;;;;3.70;1.15;;;;;;;-141.39;100.00;61527.31;9090067;26;20006;-77
2024/04/10 02:19:46;;;;;;;3.92;1.15;;;;;;;10.88;96.47;101369.72;9089677;26;20012;-77
2024/04/10 02:23:50;;;;;;;5.80;1.60;;;;;;;10.81;94.44;101382.94;9089784;26;20006;-77
2024/04/10 02:28:50;;;;;;;9.18;1.38;;;;;;;-141.39;100.00;61527.31;9089839;26;20002;-77
2024/04/10 02:33:50;;;;;;;7.18;1.65;;;;;;;-141.39;100.00;61527.31;9089442;26;20010;-77
2024/04/10 02:38:50;;;;;;;2.92;1.45;;;;;;;-141.39;100.00;61527.31;9089473;26;20002;-77
2024/04/10 02:43:50;;;;;;;5.35;1.52;;;;;;;-141.39;100.00;61527.31;9089290;26;20025;-77
2024/04/10 02:48:50;;;;;;;4.95;1.38;;;;;;;-141.39;100.00;61527.31;9087942;26;20018;-77
2024/04/10 02:53:51;;;;;;;4.30;1.20;;;;;;;-141.39;100.00;61527.31;9133146;26;20006;-77
2024/04/10 02:58:03;;;;;;;5.07;1.33;;;;;;;10.81;94.44;101382.94;9089061;26;20031;-77
2024/04/10 03:02:10;;;;;;;7.47;1.50;;;;;;;10.81;94.44;101382.94;9088849;26;20330;-77
2024/04/10 03:06:12;;;;;;;3.50;1.50;;;;;;;10.60;93.97;101429.94;9086003;26;20341;-77
2024/04/10 03:10:14;;;;;;;4.55;1.73;;;;;;;10.76;92.70;101451.41;9088811;26;20017;-77
2024/04/10 03:14:16;;;;;;;5.47;1.52;;;;;;;10.66;94.56;101464.13;9088922;26;20002;-77
2024/04/10 03:18:18;;;;;;;6.72;1.63;;;;;;;10.58;94.57;101486.34;9089397;26;20051;-77
2024/04/10 03:22:21;;;;;;;6.60;1.85;;;;;;;10.91;94.09;101481.13;9089652;26;20010;-77
2024/04/10 03:26:23;;;;;;;2.92;1.55;;;;;;;10.72;94.77;101483.06;9090492;26;20034;-77
2024/04/10 03:30:26;;;;;;;4.65;1.58;;;;;;;10.52;96.86;101485.16;9089061;26;19997;-77
2024/04/10 03:34:27;;;;;;;6.53;1.60;;;;;;;10.60;97.01;101495.09;9087909;26;20017;-77
2024/04/10 03:38:29;;;;;;;5.68;1.27;;;;;;;10.46;97.01;101493.00;9056079;26;20522;-77
2024/04/10 03:42:32;;;;;;;5.97;1.85;;;;;;;10.35;98.08;101499.44;9087755;26;20522;-76
2024/04/10 03:46:34;;;;;;;2.45;1.60;;;;;;;10.36;95.77;101505.63;9107873;26;20013;-77
2024/04/10 03:50:38;;;;;;;2.92;1.40;;;;;;;10.63;93.53;101508.16;9147401;26;20014;-77
2024/04/10 03:54:40;;;;;;;2.78;1.30;;;;;;;10.38;92.83;101523.22;9086740;26;20446;-77
2024/04/10 03:58:42;;;;;;;4.07;1.77;;;;;;;10.47;93.93;101521.47;9087262;26;20016;-77
2024/04/10 04:02:44;;;;;;;4.95;1.50;;;;;;;10.53;93.81;101537.72;9088286;26;20012;-77
2024/04/10 04:06:46;;;;;;;2.38;1.20;;;;;;;10.66;93.33;101533.81;9089091;26;20331;-77
2024/04/10 04:10:48;;;;;;;4.30;2.10;;;;;;;10.42;93.61;101534.50;9088399;26;20403;-77
2024/04/10 04:14:49;;;;;;;7.13;1.65;;;;;;;10.55;93.71;101537.56;9100009;26;20006;-76
2024/04/10 04:18:53;;;;;;;6.32;2.00;;;;;;;10.64;92.75;101550.03;9102885;26;20006;-76
2024/04/10 04:22:55;;;;;;;5.15;1.80;;;;;;;10.59;92.36;101563.09;9095368;26;20003;-77
2024/04/10 04:26:56;;;;;;;4.53;1.33;;;;;;;10.55;93.23;101567.06;9087368;26;20461;-77
2024/04/10 04:30:58;;;;;;;4.47;1.52;;;;;;;10.53;94.04;101582.44;9087999;26;20522;-77
2024/04/10 04:34:59;;;;;;;2.67;1.15;;;;;;;10.39;93.08;101583.00;9087975;26;20017;-77
2024/04/10 04:39:02;;;;;;;6.53;2.05;;;;;;;10.51;92.67;101606.72;9087655;26;20337;-79
2024/04/10 04:43:09;;;;;;;5.68;1.60;;;;;;;10.22;94.09;101612.31;9088216;26;19998;-77
2024/04/10 04:47:11;;;;;;;4.65;1.60;;;;;;;10.16;95.00;101625.47;9027652;26;20003;-77
2024/04/10 04:51:13;;;;;;;4.47;1.90;;;;;;;10.42;93.49;101642.50;9027259;26;20034;-76
2024/04/10 04:55:15;;;;;;;5.25;1.75;;;;;;;10.34;93.62;101645.09;9044290;26;20435;-77
2024/04/10 04:59:17;;;;;;;2.42;1.42;;;;;;;10.17;93.42;101659.28;9086795;26;20319;-78
2024/04/10 05:07:40;;;;;;;7.82;1.60;;;;;;;10.21;93.37;101663.38;9086081;26;20030;-77
2024/04/10 05:11:42;;;;;;;5.53;1.85;;;;;;;10.23;92.79;101669.41;9084817;26;20014;-77
2024/04/10 05:15:43;;;;;;;3.45;1.67;;;;;;;10.21;93.30;101684.78;9086448;26;20020;-77
2024/04/10 05:19:46;;;;;;;2.85;1.52;;;;;;;10.31;92.34;101669.50;9086130;26;20002;-77
2024/04/10 05:23:48;;;;;;;4.82;2.00;;;;;;;10.64;88.97;101673.31;9086115;26;20370;-77
2024/04/10 05:27:49;;;;;;;4.05;1.60;;;;;;;10.39;89.52;101676.78;9086439;26;20351;-77
2024/04/10 05:31:51;;;;;;;4.97;2.08;;;;;;;10.39;89.81;101687.47;9085822;26;20027;-76
2024/04/10 05:36:01;;;;;;;9.45;1.70;;;;;;;10.68;86.85;101700.66;9086006;26;20002;-76
2024/04/10 05:40:08;;;;;;;4.72;1.80;;;;;;;10.90;86.45;101710.03;9089414;26;20017;-76
2024/04/10 05:44:10;;;;;;;4.53;1.90;;;;;;;10.84;84.28;101720.41;9114365;26;20034;-76
2024/04/10 05:48:14;;;;;;;8.35;2.13;;;;;;;10.91;82.74;101714.41;9085424;26;20076;-77
2024/04/10 05:52:16;;;;;;;7.55;1.83;;;;;;;11.19;79.99;101710.59;9085056;26;20132;-76
2024/04/10 05:56:17;;;;;;;5.10;1.52;;;;;;;10.85;78.63;101730.13;9085544;26;20034;-76
2024/04/10 06:00:19;;;;;;;5.75;1.83;;;;;;;10.94;78.73;101733.72;9085289;26;19998;-76
2024/04/10 06:04:21;;;;;;;4.22;1.92;;;;;;;10.96;75.38;101731.72;9053543;26;20054;-76
2024/04/10 06:08:23;;;;;;;7.00;2.72;;;;;;;11.20;75.05;101739.09;9085565;26;20240;-76
2024/04/10 06:12:25;;;;;;;5.97;2.30;;;;;;;11.20;74.47;101744.47;9084212;26;20006;-76
2024/04/10 06:16:26;;;;;;;5.30;2.63;;;;;;;11.43;72.12;101748.28;9053181;26;20008;-76
2024/04/10 06:20:28;;;;;;;4.63;2.65;;;;;;;11.33;73.39;101750.25;9083872;26;20006;-76
2024/04/10 06:24:31;;;;;;;6.13;2.80;;;;;;;11.55;71.26;101748.88;9088671;26;20002;-77
2024/04/10 06:28:33;;;;;;;4.60;2.40;;;;;;;11.37;71.02;101748.94;9090625;26;20349;-77
2024/04/10 06:32:35;;;;;;;7.40;3.47;;;;;;;11.14;71.90;101751.31;9092248;26;20012;-79
2024/04/10 06:36:37;;;;;;;9.82;3.40;;;;;;;11.29;71.50;101766.84;9095567;26;20125;-79
2024/04/10 06:40:39;;;;;;;7.82;2.75;;;;;;;11.14;70.63;101771.94;9097231;26;20458;-76
2024/04/10 06:44:41;;;;;;;7.97;3.05;;;;;;;11.39;70.65;101771.09;9059425;26;20383;-77
2024/04/10 06:48:44;;;;;;;9.60;2.55;;;;;;;11.14;71.83;101785.34;9091745;26;20357;-78
2024/04/10 06:52:46;;;;;;;9.05;2.85;;;;;;;11.21;71.58;101780.19;9094625;26;20002;-76
2024/04/10 06:56:48;;;;;;;5.70;2.50;;;;;;;11.65;70.71;101781.84;9090173;26;20047;-76
2024/04/10 07:01:06;;;;;;;7.88;2.95;;;;;;;11.28;70.71;101797.31;9089515;26;20020;-76
2024/04/10 07:05:08;;;;;;;5.82;1.85;;;;;;;11.08;70.58;101818.97;9089705;26;20026;-78
2024/04/10 07:09:11;;;;;;;11.75;2.90;;;;;;;11.69;72.64;101804.66;9057183;26;20039;-75
2024/04/10 07:13:12;;;;;;;2.92;1.80;;;;;;;11.51;69.46;101828.03;9084374;26;20113;-76
2024/04/10 07:17:14;;;;;;;9.43;3.10;;;;;;;11.64;69.75;101815.06;9062807;26;19998;-76
2024/04/10 07:21:17;;;;;;;6.88;2.80;;;;;;;11.64;70.92;101822.25;9089260;26;20411;-76
2024/04/10 07:25:18;;;;;;;6.38;2.42;;;;;;;11.74;69.88;101839.09;9089098;26;20010;-76
2024/04/10 07:29:20;;;;;;;7.03;3.00;;;;;;;12.01;69.17;101833.59;9088666;26;20398;-76
2024/04/10 07:33:22;;;;;;;8.27;2.50;;;;;;;11.93;69.07;101838.91;9088407;26;20005;-75
2024/04/10 07:37:24;;;;;;;9.15;2.78;;;;;;;11.95;69.63;101838.72;9088393;26;20021;-75
2024/04/10 07:41:25;;;;;;;7.45;3.17;;;;;;;11.69;71.38;101836.03;9088957;26;19998;-76
2024/04/10 07:45:28;;;;;;;9.32;3.03;;;;;;;11.64;68.88;101855.31;9114295;26;20005;-78
2024/04/10 07:49:30;;;;;;;8.00;3.35;;;;;;;11.89;69.62;101861.72;8971891;26;20007;-79
2024/04/10 07:53:34;;;;;;;9.52;3.90;;;;;;;12.01;69.43;101873.88;9079960;26;20473;-78
2024/04/10 07:57:35;;;;;;;6.93;2.70;;;;;;;11.74;69.22;101872.16;9063938;26;20014;-77
2024/04/10 08:01:37;;;;;;;11.65;4.28;;;;;;;12.09;69.03;101875.75;9090924;26;20021;-78
2024/04/10 08:05:39;;;;;;;11.98;3.70;;;;;;;12.08;69.20;101891.03;9057446;26;20030;-77
2024/04/10 08:09:41;;;;;;;7.45;3.72;;;;;;;11.90;69.38;101894.78;9055959;26;20006;-76
2024/04/10 08:13:42;;;;;;;6.95;3.83;;;;;;;11.39;70.33;101897.22;9087829;26;20345;-76
2024/04/10 08:17:45;;;;;;;6.72;2.80;;;;;;;11.46;70.70;101900.13;9087353;26;20002;-77
2024/04/10 08:21:47;;;;;;;4.20;2.45;;;;;;;11.52;69.59;101898.66;9091661;26;20002;-79
2024/04/10 08:25:48;;;;;;;13.85;4.30;;;;;;;12.01;69.86;101900.75;9090883;26;20006;-77
2024/04/10 08:29:50;;;;;;;12.75;3.85;;;;;;;12.04;67.73;101916.53;9088948;26;20041;-77
2024/04/10 08:33:53;;;;;;;14.30;3.70;;;;;;;11.82;67.13;101929.66;9056958;26;20006;-77
2024/04/10 08:37:56;;;;;;;9.13;3.58;;;;;;;12.43;65.83;101937.56;9087658;26;20003;-78
2024/04/10 08:41:59;;;;;;;6.25;2.80;;;;;;;12.58;64.69;101929.75;9087507;26;20022;-76
2024/04/10 08:46:01;;;;;;;8.38;2.60;;;;;;;12.83;63.37;101936.88;9085650;26;20009;-78
2024/04/10 08:50:04;;;;;;;6.35;2.60;;;;;;;12.70;63.31;101959.88;9090557;26;20020;-78
2024/04/10 08:54:06;;;;;;;6.03;2.15;;;;;;;12.55;63.49;101955.09;9059236;26;20013;-77
2024/04/10 08:58:08;;;;;;;8.07;2.08;;;;;;;12.73;61.86;101963.09;9067800;26;20017;-78
2024/04/10 09:02:11;;;;;;;5.40;2.05;;;;;;;12.69;62.45;101967.13;9086450;26;19995;-77
2024/04/10 09:06:13;;;;;;;7.95;2.60;;;;;;;12.43;62.21;101980.56;9087232;26;20021;-77
2024/04/10 09:11:56;;;;;;;4.20;2.03;;;;;;;12.37;61.22;101989.28;9116974;25;20678;-80
2024/04/10 09:15:58;;;;;;;2.25;0.93;;;;;;;12.04;61.42;102001.66;9063572;26;20007;-80
2024/04/10 09:20:13;;;;;;;6.30;2.80;;;;;;;12.62;60.66;102007.22;9058360;26;20071;-77
2024/04/10 09:24:14;;;;;;;4.03;1.48;;;;;;;12.83;61.07;102006.81;9025736;26;20014;-77
2024/04/10 09:28:17;;;;;;;1.38;0.82;;;;;;;12.52;59.02;102011.88;9064920;26;20006;-80
2024/04/10 09:32:20;;;;;;;4.75;1.48;;;;;;;12.93;58.74;102012.94;9072171;26;20366;-79
2024/04/10 09:36:23;;;;;;;2.80;1.40;;;;;;;12.75;58.56;102014.03;9069935;26;20079;-78
2024/04/10 09:40:30;;;;;;;6.47;1.83;;;;;;;12.58;58.36;102010.41;9050489;26;19999;-79
2024/04/10 09:44:32;;;;;;;4.65;1.40;;;;;;;12.71;58.01;102043.09;9065505;26;20014;-78
2024/04/10 09:48:37;;;;;;;1.50;0.95;;;;;;;12.64;57.18;102026.72;9062833;26;20003;-78
2024/04/10 09:52:41;;;;;;;3.00;1.48;;;;;;;12.75;57.55;102028.31;9031888;26;20011;-78
2024/04/10 09:56:44;;;;;;;4.53;1.60;;;;;;;13.25;57.57;102030.22;9029544;26;20003;-78
2024/04/10 10:00:45;;;;;;;8.23;1.45;;;;;;;12.89;57.89;102043.00;9058630;26;20007;-77
2024/04/10 10:04:47;;;;;;;3.70;1.70;;;;;;;12.76;58.59;102037.22;9055904;26;20006;-78
2024/04/10 10:08:51;;;;;;;7.05;2.05;;;;;;;13.15;57.84;102026.78;8994649;26;20014;-78
2024/04/10 10:12:52;;;;;;;8.45;1.80;;;;;;;13.01;57.42;102043.53;9055715;26;20014;-77
2024/04/10 10:17:07;;;;;;;5.32;1.85;;;;;;;13.23;56.32;102053.78;9056989;26;20019;-77
2024/04/10 10:21:10;;;;;;;2.47;1.20;;;;;;;13.03;56.70;102061.25;9042901;26;20007;-77
2024/04/10 10:25:14;;;;;;;6.18;1.23;;;;;;;12.97;57.31;102065.41;8999390;26;20022;-77
2024/04/10 10:29:17;;;;;;;5.97;1.73;;;;;;;13.43;55.98;102070.50;9030073;26;20484;-77
2024/04/10 10:33:21;;;;;;;8.27;1.70;;;;;;;13.44;56.74;102062.25;9031069;26;20081;-79
2024/04/10 10:37:23;;;;;;;12.45;2.15;;;;;;;13.15;56.71;102053.69;9002659;26;20003;-77
2024/04/10 10:41:24;;;;;;;4.60;1.30;;;;;;;13.14;57.33;102066.31;9031226;26;20383;-77
2024/04/10 10:45:26;;;;;;;10.80;1.63;;;;;;;13.52;56.98;102070.34;9035326;26;20010;-78
2024/04/10 10:49:28;;;;;;;67.75;5.45;;;;;;;13.66;56.57;102058.09;9033192;26;20021;-77
2024/04/10 10:53:30;;;;;;;2.45;1.27;;;;;;;13.53;55.18;102072.03;9031870;26;20052;-76
2024/04/10 10:57:32;;;;;;;1.67;0.85;;;;;;;13.39;55.27;102079.91;9042451;26;20003;-78
2024/04/10 11:01:34;;;;;;;4.10;0.82;;;;;;;13.67;55.25;102065.16;9039626;26;20002;-77
2024/04/10 11:05:36;;;;;;;4.18;0.68;;;;;;;13.34;52.88;102064.22;9024519;26;20075;-77
2024/04/10 11:09:38;;;;;;;2.35;0.80;;;;;;;14.50;52.28;102066.91;9030033;26;20075;-77
2024/04/10 11:13:49;;;;;;;1.70;0.73;;;;;;;13.99;51.37;102090.47;9029888;26;20003;-77
2024/04/10 11:18:02;;;;;;;4.03;0.80;;;;;;;14.16;52.58;102084.91;9031034;26;20014;-78
2024/04/10 11:22:16;;;;;;;2.83;0.95;;;;;;;13.80;52.87;102094.31;9032323;26;20014;-76
2024/04/10 11:26:18;;;;;;;6.35;1.08;;;;;;;13.80;53.88;102119.41;8998551;26;20079;-77
2024/04/10 11:30:19;;;;;;;0.95;0.70;;;;;;;13.31;54.68;102114.84;9035196;26;20358;-78
2024/04/10 11:34:21;;;;;;;7.57;0.95;;;;;;;13.68;55.23;102123.41;9030504;26;20014;-77
2024/04/10 11:38:24;;;;;;;7.10;1.02;;;;;;;13.71;54.95;102117.72;8996994;26;20382;-76
2024/04/10 11:42:26;;;;;;;0.65;0.35;;;;;;;13.49;54.55;102135.28;8996683;26;20437;-77
2024/04/10 11:46:27;;;;;;;4.78;0.82;;;;;;;14.25;53.05;102125.38;9022727;26;20002;-77
2024/04/10 11:50:29;;;;;;;1.00;0.35;;;;;;;13.62;53.27;102137.53;9028077;26;20368;-76
2024/04/10 11:54:31;;;;;;;6.35;1.52;;;;;;;14.59;50.95;102138.72;8996312;26;20425;-76
2024/04/10 11:58:32;;;;;;;2.63;0.80;;;;;;;14.19;51.67;102148.44;9028207;26;20354;-77
2024/04/10 12:02:34;;;;;;;2.35;0.90;;;;;;;13.50;52.65;102168.44;8996704;26;20075;-76
2024/04/10 12:06:36;;;;;;;3.20;1.10;;;;;;;13.36;54.43;102160.97;9028368;26;20455;-77
2024/04/10 12:10:39;;;;;;;3.20;1.08;;;;;;;13.25;55.46;102149.50;9028064;26;19998;-78
2024/04/10 12:14:43;;;;;;;4.03;0.90;;;;;;;13.32;55.85;102148.84;9027356;26;20071;-77
2024/04/10 12:18:45;;;;;;;3.65;0.80;;;;;;;13.47;54.90;102163.38;8996205;26;20034;-79
2024/04/10 12:22:46;;;;;;;3.75;1.00;;;;;;;13.42;54.88;102174.66;9027009;26;20003;-76
2024/04/10 12:26:48;;;;;;;3.63;1.00;;;;;;;13.16;55.61;102181.84;8936713;26;20000;-75
2024/04/10 12:30:50;;;;;;;3.67;1.13;;;;;;;13.87;54.92;102185.06;9010207;26;20011;-77
2024/04/10 12:34:58;;;;;;;3.53;1.05;;;;;;;13.16;55.46;102171.94;9022643;26;20353;-76
2024/04/10 12:39:00;;;;;;;2.58;1.20;;;;;;;13.95;54.34;102175.34;9027747;26;20013;-77
2024/04/10 12:43:03;;;;;;;3.80;1.05;;;;;;;14.25;54.50;102173.88;9027672;26;20458;-79
2024/04/10 12:47:06;;;;;;;3.90;1.10;;;;;;;13.78;55.51;102179.84;9029642;26;20003;-78
2024/04/10 12:51:08;;;;;;;3.83;1.05;;;;;;;13.69;54.54;102178.94;9031273;26;20007;-77
2024/04/10 12:55:09;;;;;;;3.70;1.15;;;;;;;13.83;54.48;102183.72;9038187;26;20014;-76
2024/04/10 12:59:12;;;;;;;11.73;1.65;;;;;;;15.20;52.97;102180.41;9029007;26;20003;-78
2024/04/10 13:03:19;;;;;;;3.75;0.80;;;;;;;14.16;50.75;102186.50;9027833;26;20007;-77
2024/04/10 13:07:21;;;;;;;4.72;1.00;;;;;;;14.26;51.69;102192.59;9026100;26;19999;-77
2024/04/10 13:11:23;;;;;;;13.68;1.20;;;;;;;13.88;52.45;102194.00;8994482;26;20368;-76
2024/04/10 13:15:25;;;;;;;2.17;0.98;;;;;;;14.82;50.68;102182.84;9001216;26;20077;-78
2024/04/10 13:19:28;;;;;;;4.55;1.35;;;;;;;14.62;51.11;102179.66;8970567;26;20006;-77
2024/04/10 13:23:42;;;;;;;9.80;1.35;;;;;;;14.56;51.84;102184.88;8997689;26;20455;-76
2024/04/10 13:27:44;;;;;;;4.40;1.33;;;;;;;14.09;50.31;102191.72;9032622;26;20033;-78
2024/04/10 13:31:47;;;;;;;4.38;1.17;;;;;;;14.40;49.87;102197.31;9028336;26;20079;-77
2024/04/10 13:35:48;;;;;;;2.08;0.90;;;;;;;14.55;49.08;102189.44;9027261;26;19999;-79
2024/04/10 13:39:50;;;;;;;9.98;1.15;;;;;;;13.84;50.18;102208.81;9026534;26;20006;-77
2024/04/10 13:43:54;;;;;;;38.35;3.20;;;;;;;13.90;50.88;102201.94;9025200;26;20043;-77
2024/04/10 13:47:56;;;;;;;3.78;1.33;;;;;;;13.76;51.84;102203.41;8991804;26;20003;-78
2024/04/10 13:51:58;;;;;;;3.35;1.00;;;;;;;14.26;52.46;102203.38;9027517;26;20003;-78
2024/04/10 13:56:08;;;;;;;4.97;1.25;;;;;;;13.67;52.39;102199.81;8995558;26;20007;-76
2024/04/10 14:00:11;;;;;;;2.47;1.17;;;;;;;13.69;52.38;102213.97;9030751;26;20075;-75
2024/04/10 14:04:13;;;;;;;5.38;1.25;;;;;;;13.95;52.72;102216.59;8998920;26;20018;-75
2024/04/10 14:08:17;;;;;;;2.80;0.90;;;;;;;14.53;51.79;102218.41;9030016;26;19998;-75
2024/04/10 14:12:19;;;;;;;0.98;0.50;;;;;;;13.31;53.03;102223.38;9030196;26;20459;-76
2024/04/10 14:16:21;;;;;;;3.60;1.02;;;;;;;13.84;53.68;102236.59;9029778;26;20017;-74
2024/04/10 14:20:23;;;;;;;1.88;0.98;;;;;;;14.27;52.58;102229.31;9029252;26;20007;-74
2024/04/10 14:24:24;;;;;;;3.85;1.45;;;;;;;14.26;53.47;102235.72;9029848;26;20002;-75
2024/04/10 14:28:28;;;;;;;3.88;1.30;;;;;;;14.22;52.04;102247.81;9028761;26;20043;-75
2024/04/10 14:32:31;;;;;;;3.78;1.15;;;;;;;14.12;51.83;102247.13;9029414;26;20353;-73
2024/04/10 14:36:35;;;;;;;5.97;1.33;;;;;;;14.49;51.44;102252.13;9029790;26;20003;-74
2024/04/10 14:40:37;;;;;;;3.15;1.10;;;;;;;14.32;50.76;102256.63;9029764;26;20454;-74
2024/04/10 14:44:45;;;;;;;2.55;0.90;;;;;;;14.66;51.33;102263.78;8997529;26;20009;-74
2024/04/10 14:48:47;;;;;;;4.47;1.27;;;;;;;15.53;50.68;102260.34;9029219;26;20007;-73
2024/04/10 14:52:49;;;;;;;2.72;0.85;;;;;;;14.77;49.81;102255.38;9029006;26;20339;-74
2024/04/10 14:56:51;;;;;;;2.75;0.90;;;;;;;15.58;48.64;102260.66;9028473;26;20022;-74
2024/04/10 15:00:54;;;;;;;4.97;1.02;;;;;;;14.79;49.08;102258.75;9029758;26;20013;-77
2024/04/10 15:04:56;;;;;;;4.57;1.48;;;;;;;14.52;50.44;102275.22;9028783;26;20470;-77
2024/04/10 15:08:57;;;;;;;2.20;0.85;;;;;;;14.69;50.57;102290.44;9028618;26;20007;-77
2024/04/10 15:13:00;;;;;;;2.85;1.00;;;;;;;14.20;50.52;102284.88;9028963;26;20013;-78
2024/04/10 15:17:02;;;;;;;2.50;1.00;;;;;;;14.36;51.22;102284.94;9022264;26;20007;-76
2024/04/10 15:21:04;;;;;;;3.83;1.02;;;;;;;14.72;51.33;102279.28;9029033;26;20002;-76
2024/04/10 15:25:08;;;;;;;2.08;1.00;;;;;;;14.61;51.75;102304.75;9022319;26;20007;-75
2024/04/10 15:29:10;;;;;;;6.05;0.80;;;;;;;13.93;52.15;102306.69;9028601;26;20017;-76
2024/04/10 15:33:11;;;;;;;2.58;1.00;;;;;;;13.96;53.28;102317.13;9028956;26;19998;-77
2024/04/10 15:37:13;;;;;;;3.60;0.90;;;;;;;14.17;52.78;102315.72;9029157;26;20003;-78
2024/04/10 15:41:15;;;;;;;1.80;0.90;;;;;;;14.22;51.58;102304.44;9028753;26;20002;-77
2024/04/10 15:45:16;;;;;;;1.30;0.80;;;;;;;14.54;49.78;102314.50;8996767;26;20006;-76
2024/04/10 15:49:18;;;;;;;1.90;0.70;;;;;;;14.22;51.93;102309.81;9022856;26;20014;-75
2024/04/10 15:53:21;;;;;;;1.60;0.90;;;;;;;14.26;52.01;102310.38;9032936;26;20019;-77
2024/04/10 15:57:23;;;;;;;3.58;1.10;;;;;;;14.46;50.54;102303.72;9028858;26;19998;-76
2024/04/10 16:01:25;;;;;;;1.20;0.90;;;;;;;14.98;48.44;102304.28;9028517;26;20057;-76
2024/04/10 16:05:33;;;;;;;1.02;0.75;;;;;;;14.47;47.85;102311.63;8966500;26;20019;-77
2024/04/10 16:09:35;;;;;;;1.65;1.05;;;;;;;15.01;46.81;102325.53;8995139;26;20014;-77
2024/04/10 16:13:37;;;;;;;1.90;0.80;;;;;;;14.72;47.38;102315.22;9028370;26;20002;-77
2024/04/10 16:17:38;;;;;;;1.75;0.93;;;;;;;14.53;48.39;102320.06;9027386;26;20636;-76
2024/04/10 16:21:40;;;;;;;2.90;0.82;;;;;;;14.73;47.38;102325.00;9028798;26;20017;-76
2024/04/10 16:25:42;;;;;;;3.92;2.08;;;;;;;14.39;48.93;102324.19;9002295;26;20329;-77
2024/04/10 16:29:44;;;;;;;5.30;1.17;;;;;;;14.64;48.88;102336.78;9030294;26;20003;-75
2024/04/10 16:33:47;;;;;;;1.73;1.27;;;;;;;14.26;50.36;102335.47;9027824;26;20003;-77
2024/04/10 16:37:51;;;;;;;1.98;0.70;;;;;;;14.16;50.67;102338.28;9025408;26;20019;-79
2024/04/10 16:41:52;;;;;;;0.77;0.60;;;;;;;13.75;52.04;102345.31;9028090;26;20017;-78
2024/04/10 16:45:59;;;;;;;1.38;0.85;;;;;;;13.84;52.29;102338.97;9025944;26;20003;-76
2024/04/10 16:50:03;;;;;;;2.90;1.02;;;;;;;14.20;52.39;102349.56;9024947;26;20031;-77
2024/04/10 16:54:05;;;;;;;5.50;1.10;;;;;;;13.99;53.25;102349.16;9026257;26;20003;-79
2024/04/10 16:58:10;;;;;;;2.78;1.00;;;;;;;14.28;52.15;102352.31;9029513;26;20014;-79
2024/04/10 17:02:11;;;;;;;5.82;1.00;;;;;;;13.58;53.55;102357.00;9036348;26;20053;-79
2024/04/10 17:06:13;;;;;;;5.47;1.08;;;;;;;13.41;53.85;102357.88;9028544;26;20013;-77
2024/04/10 17:10:15;;;;;;;5.93;1.50;;;;;;;13.57;54.10;102361.53;8944416;26;20126;-78
2024/04/10 17:14:17;;;;;;;2.50;1.17;;;;;;;13.56;54.71;102373.31;8986978;26;20345;-78
2024/04/10 17:22:42;;;;;;;2.47;1.15;;;;;;;13.51;55.54;102381.00;9033643;26;19999;-79
2024/04/10 17:26:44;;;;;;;3.72;1.40;;;;;;;13.66;55.74;102375.03;8970257;26;20000;-78
2024/04/10 17:31:00;;;;;;;3.67;1.30;;;;;;;13.44;55.90;102389.88;8976275;26;20007;-79
2024/04/10 17:35:04;;;;;;;4.00;1.10;;;;;;;13.47;56.30;102376.09;9008730;26;20013;-79
2024/04/10 17:39:07;;;;;;;1.90;1.10;;;;;;;13.76;55.92;102383.88;9047902;26;20022;-79
2024/04/10 17:43:08;;;;;;;3.80;1.50;;;;;;;13.44;56.66;102392.56;9017396;26;20002;-79
2024/04/10 17:47:10;;;;;;;6.70;1.75;;;;;;;13.07;58.00;102395.41;9040458;26;20018;-77
2024/04/10 17:51:14;;;;;;;4.57;1.40;;;;;;;13.19;57.96;102400.44;9036450;26;20039;-76
2024/04/10 17:55:15;;;;;;;3.10;1.02;;;;;;;13.10;59.67;102404.00;8955337;26;20063;-77
2024/04/10 17:59:17;;;;;;;6.93;1.15;;;;;;;13.15;59.21;102415.16;8973355;26;20051;-77
2024/04/10 18:03:20;;;;;;;4.38;1.27;;;;;;;13.06;59.62;102413.41;8973735;26;20400;-77
2024/04/10 18:07:22;;;;;;;3.70;1.70;;;;;;;13.13;60.96;102414.47;9029986;26;19999;-78
2024/04/10 18:11:24;;;;;;;5.10;1.42;;;;;;;13.06;62.33;102413.41;8998586;26;20019;-77
2024/04/10 18:15:26;;;;;;;4.25;2.00;;;;;;;12.55;63.80;102424.75;9030175;26;20015;-77
2024/04/10 18:19:28;;;;;;;3.03;1.38;;;;;;;12.58;65.47;102435.22;8999491;26;20471;-77
2024/04/10 18:23:42;;;;;;;4.13;1.73;;;;;;;12.48;65.47;102429.03;9032752;26;20419;-78
2024/04/10 18:27:44;;;;;;;5.82;2.00;;;;;;;12.30;66.96;102427.13;9030693;26;20453;-77
2024/04/10 18:31:49;;;;;;;5.40;1.40;;;;;;;12.16;68.48;102445.59;9030946;26;20468;-77
2024/04/10 18:35:55;;;;;;;6.97;1.90;;;;;;;12.32;67.21;102451.16;8999053;26;20014;-78
2024/04/10 18:39:57;;;;;;;5.03;2.03;;;;;;;12.04;68.18;102459.19;9029264;26;19999;-77
2024/04/10 18:43:59;;;;;;;3.67;1.70;;;;;;;11.51;69.90;102456.09;9028551;26;20360;-77
2024/04/10 18:48:01;;;;;;;6.22;2.25;;;;;;;11.47;72.85;102477.03;9029748;26;19999;-78
2024/04/10 18:52:04;;;;;;;4.45;1.70;;;;;;;11.54;72.23;102479.13;9029501;26;20134;-77
2024/04/10 18:56:06;;;;;;;7.82;2.60;;;;;;;11.28;74.05;102474.34;9030900;26;20046;-78
2024/04/10 19:00:11;;;;;;;7.80;3.60;;;;;;;11.60;72.20;102486.63;9028181;26;20015;-77
2024/04/10 19:04:12;;;;;;;18.27;7.57;;;;;;;11.28;75.27;102487.75;9028028;26;20553;-78
2024/04/10 19:08:17;;;;;;;22.30;8.90;;;;;;;10.37;82.15;102490.56;8991667;26;20022;-77
2024/04/10 19:12:19;;;;;;;20.70;8.57;;;;;;;11.08;78.20;102497.56;8972401;26;20021;-77
2024/04/10 19:16:21;;;;;;;15.65;7.43;;;;;;;10.92;78.24;102497.25;9028315;26;19999;-77